createdAt,value
2022-10-23T00:01:27.388Z,3.47
2022-10-23T00:04:30.325Z,4.03
2022-10-23T00:07:33.608Z,3.43
2022-10-23T00:10:41.384Z,6.77
2022-10-23T00:13:44.704Z,4.40
2022-10-23T00:16:47.612Z,4.07
2022-10-23T00:19:50.731Z,3.43
2022-10-23T00:22:53.625Z,3.40
2022-10-23T00:25:58.178Z,2.70
2022-10-23T00:29:01.263Z,2.80
2022-10-23T00:32:04.287Z,4.73
2022-10-23T00:35:08.206Z,3.40
2022-10-23T00:38:12.173Z,3.10
2022-10-23T00:41:20.277Z,3.53
2022-10-23T00:45:00.779Z,5.80
2022-10-23T00:48:04.511Z,3.00
2022-10-23T00:51:07.427Z,3.33
2022-10-23T00:54:23.614Z,3.37
2022-10-23T01:00:45.074Z,3.60
2022-10-23T01:03:48.502Z,3.03
2022-10-23T01:06:59.321Z,2.57
2022-10-23T01:10:10.705Z,3.13
2022-10-23T01:13:20.060Z,2.80
2022-10-23T01:16:28.050Z,4.17
2022-10-23T01:19:45.281Z,4.27
2022-10-23T01:23:23.343Z,2.77
2022-10-23T01:26:36.906Z,2.63
2022-10-23T01:29:47.001Z,4.00
2022-10-23T01:32:53.515Z,2.70
2022-10-23T01:36:02.165Z,4.10
2022-10-23T01:39:09.169Z,5.00
2022-10-23T01:42:16.680Z,3.83
2022-10-23T01:45:26.841Z,2.87
2022-10-23T01:48:32.196Z,3.50
2022-10-23T01:51:37.728Z,2.40
2022-10-23T01:54:43.368Z,2.90
2022-10-23T01:57:48.233Z,3.00
2022-10-23T02:00:55.550Z,2.90
2022-10-23T02:04:01.193Z,3.00
2022-10-23T02:07:04.259Z,2.03
2022-10-23T02:10:09.096Z,2.57
2022-10-23T02:13:17.123Z,2.27
2022-10-23T02:16:29.642Z,3.20
2022-10-23T02:19:39.723Z,2.80
2022-10-23T02:22:50.121Z,3.20
2022-10-23T02:25:56.326Z,1.73
2022-10-23T02:32:16.598Z,1.63
2022-10-23T02:35:21.993Z,2.40
2022-10-23T02:38:30.578Z,2.20
2022-10-23T02:41:45.236Z,1.40
2022-10-23T02:45:00.282Z,1.23
2022-10-23T02:48:12.592Z,1.70
2022-10-23T02:51:22.309Z,4.70
2022-10-23T02:54:36.086Z,1.43
2022-10-23T02:57:43.936Z,2.00
2022-10-23T03:00:52.525Z,1.77
2022-10-23T03:04:00.330Z,2.00
2022-10-23T03:07:03.314Z,4.53
2022-10-23T03:10:07.204Z,1.23
2022-10-23T03:13:11.426Z,3.23
2022-10-23T03:16:14.345Z,1.33
2022-10-23T03:19:18.794Z,1.73
2022-10-23T03:22:21.719Z,1.93
2022-10-23T03:25:24.631Z,1.63
2022-10-23T03:28:27.499Z,2.30
2022-10-23T03:31:30.418Z,1.83
2022-10-23T03:34:34.825Z,3.17
2022-10-23T03:37:37.733Z,1.70
2022-10-23T03:40:40.618Z,2.27
2022-10-23T03:43:43.487Z,1.10
2022-10-23T03:46:46.396Z,3.43
2022-10-23T03:49:50.631Z,1.37
2022-10-23T03:52:53.531Z,1.17
2022-10-23T03:55:56.430Z,1.43
2022-10-23T03:58:59.382Z,1.27
2022-10-23T04:02:02.389Z,1.50
2022-10-23T04:05:07.557Z,1.40
2022-10-23T04:08:10.731Z,4.27
2022-10-23T04:11:13.640Z,1.63
2022-10-23T04:14:16.519Z,1.10
2022-10-23T04:17:19.451Z,1.50
2022-10-23T04:20:23.814Z,1.40
2022-10-23T04:23:26.985Z,1.70
2022-10-23T04:26:29.932Z,4.30
2022-10-23T04:29:33.178Z,2.20
2022-10-23T04:32:36.335Z,1.50
2022-10-23T04:35:40.631Z,3.30
2022-10-23T04:38:43.685Z,2.00
2022-10-23T04:41:46.572Z,1.47
2022-10-23T04:44:49.445Z,1.37
2022-10-23T04:47:53.400Z,1.50
2022-10-23T04:50:59.276Z,1.30
2022-10-23T04:54:02.202Z,2.07
2022-10-23T04:57:05.319Z,1.33
2022-10-23T05:00:11.152Z,1.50
2022-10-23T05:03:14.076Z,1.67
2022-10-23T05:06:18.317Z,3.40
2022-10-23T05:09:22.250Z,1.37
2022-10-23T05:12:26.619Z,2.37
2022-10-23T05:15:29.576Z,3.47
2022-10-23T05:18:35.805Z,1.53
2022-10-23T05:21:41.691Z,2.27
2022-10-23T05:24:48.270Z,1.40
2022-10-23T05:27:53.569Z,2.17
2022-10-23T05:30:56.863Z,3.67
2022-10-23T05:34:01.302Z,2.13
2022-10-23T05:37:08.664Z,5.77
2022-10-23T05:40:12.880Z,2.83
2022-10-23T05:43:15.801Z,1.47
2022-10-23T05:46:18.683Z,1.10
2022-10-23T05:49:21.661Z,1.50
2022-10-23T05:52:25.913Z,1.53
2022-10-23T05:55:28.801Z,1.07
2022-10-23T05:58:31.820Z,1.20
2022-10-23T06:01:35.317Z,1.63
2022-10-23T06:04:38.609Z,1.00
2022-10-23T06:07:43.037Z,3.53
2022-10-23T06:10:46.185Z,1.20
2022-10-23T06:13:49.452Z,1.17
2022-10-23T06:16:52.586Z,2.83
2022-10-23T06:20:00.707Z,1.93
2022-10-23T06:23:05.075Z,1.03
2022-10-23T06:26:10.164Z,1.40
2022-10-23T06:29:13.033Z,1.43
2022-10-23T06:32:16.027Z,3.00
2022-10-23T06:35:18.941Z,1.47
2022-10-23T06:38:23.473Z,1.97
2022-10-23T06:41:26.452Z,2.10
2022-10-23T06:44:29.342Z,1.63
2022-10-23T06:47:32.279Z,2.43
2022-10-23T06:50:35.292Z,2.53
2022-10-23T06:53:39.814Z,1.77
2022-10-23T06:56:42.731Z,3.97
2022-10-23T06:59:45.623Z,1.97
2022-10-23T07:02:48.556Z,3.20
2022-10-23T07:05:51.422Z,1.70
2022-10-23T07:08:55.694Z,1.30
2022-10-23T07:11:58.665Z,1.60
2022-10-23T07:15:01.591Z,1.60
2022-10-23T07:18:04.876Z,1.83
2022-10-23T07:21:07.936Z,2.37
2022-10-23T07:24:12.255Z,1.73
2022-10-23T07:27:15.185Z,1.97
2022-10-23T07:30:18.558Z,3.90
2022-10-23T07:33:21.725Z,3.50
2022-10-23T07:36:24.706Z,8.70
2022-10-23T07:39:29.172Z,1.90
2022-10-23T07:42:32.059Z,1.47
2022-10-23T07:45:35.027Z,4.10
2022-10-23T07:48:38.446Z,1.73
2022-10-23T07:51:41.415Z,2.50
2022-10-23T07:54:45.817Z,0.70
2022-10-23T07:57:48.747Z,3.00
2022-10-23T08:00:56.238Z,1.90
2022-10-23T08:03:59.362Z,1.30
2022-10-23T08:07:02.361Z,0.80
2022-10-23T08:10:07.803Z,1.20
2022-10-23T08:13:13.071Z,1.03
2022-10-23T08:16:15.982Z,0.77
2022-10-23T08:19:18.947Z,0.80
2022-10-23T08:22:21.943Z,1.50
2022-10-23T08:25:26.264Z,1.03
2022-10-23T08:28:29.799Z,1.63
2022-10-23T08:31:32.800Z,0.60
2022-10-23T08:34:37.819Z,1.00
2022-10-23T08:37:40.827Z,1.40
2022-10-23T08:40:47.589Z,0.80
2022-10-23T08:43:55.514Z,0.70
2022-10-23T08:47:05.254Z,0.83
2022-10-23T08:50:15.682Z,1.43
2022-10-23T08:53:26.037Z,1.93
2022-10-23T08:56:35.569Z,0.93
2022-10-23T08:59:44.937Z,1.73
2022-10-23T09:02:49.862Z,1.13
2022-10-23T09:06:09.220Z,0.80
2022-10-23T09:09:46.062Z,0.53
2022-10-23T09:12:50.953Z,1.33
2022-10-23T09:16:04.001Z,0.87
2022-10-23T09:19:13.413Z,1.57
2022-10-23T09:22:16.659Z,0.73
2022-10-23T09:25:25.128Z,0.60
2022-10-23T09:28:32.726Z,0.50
2022-10-23T09:31:35.700Z,0.97
2022-10-23T09:34:38.671Z,2.00
2022-10-23T09:37:48.530Z,0.50
2022-10-23T09:40:52.119Z,5.17
2022-10-23T09:44:04.576Z,0.80
2022-10-23T09:47:12.110Z,0.90
2022-10-23T09:50:22.183Z,2.23
2022-10-23T09:53:33.184Z,0.67
2022-10-23T09:56:41.651Z,0.70
2022-10-23T09:59:51.206Z,0.70
2022-10-23T10:03:00.128Z,1.60
2022-10-23T10:06:04.789Z,0.63
2022-10-23T10:09:13.059Z,0.70
2022-10-23T10:12:29.304Z,0.57
2022-10-23T10:15:38.559Z,3.00
2022-10-23T10:18:48.638Z,0.57
2022-10-23T10:22:04.841Z,0.83
2022-10-23T10:25:14.631Z,2.63
2022-10-23T10:28:31.860Z,2.00
2022-10-23T10:31:50.778Z,1.30
2022-10-23T10:35:03.876Z,0.93
2022-10-23T10:38:44.462Z,0.63
2022-10-23T10:41:56.830Z,0.82
2022-10-23T10:45:17.993Z,0.50
2022-10-23T10:48:40.404Z,9.90
2022-10-23T10:51:53.003Z,1.10
2022-10-23T10:55:03.699Z,0.40
2022-10-23T10:58:16.854Z,0.63
2022-10-23T11:01:26.804Z,2.20
2022-10-23T11:04:37.084Z,4.55
2022-10-23T11:07:44.322Z,2.40
2022-10-23T11:10:51.360Z,1.33
2022-10-23T11:13:54.448Z,0.95
2022-10-23T11:17:03.435Z,0.65
2022-10-23T11:20:23.206Z,1.35
2022-10-23T11:23:45.861Z,0.60
2022-10-23T11:27:03.053Z,0.65
2022-10-23T11:30:20.508Z,0.70
2022-10-23T11:34:15.504Z,0.85
2022-10-23T11:37:21.749Z,0.85
2022-10-23T11:40:26.657Z,1.83
2022-10-23T11:43:33.354Z,0.77
2022-10-23T11:46:38.768Z,0.60
2022-10-23T11:49:41.653Z,0.65
2022-10-23T11:53:15.217Z,1.13
2022-10-23T11:56:27.440Z,0.85
2022-10-23T11:59:32.682Z,0.60
2022-10-23T12:02:38.479Z,0.40
2022-10-23T12:05:44.509Z,0.60
2022-10-23T12:08:53.204Z,0.60
2022-10-23T12:12:28.221Z,0.73
2022-10-23T12:15:32.240Z,0.88
2022-10-23T12:18:46.939Z,0.63
2022-10-23T12:21:53.239Z,1.05
2022-10-23T12:25:02.084Z,0.60
2022-10-23T12:28:13.329Z,2.05
2022-10-23T12:31:27.304Z,0.60
2022-10-23T12:34:39.967Z,1.90
2022-10-23T12:37:56.095Z,0.70
2022-10-23T12:41:11.189Z,1.38
2022-10-23T12:44:14.196Z,0.77
2022-10-23T12:47:19.708Z,0.90
2022-10-23T12:50:25.090Z,1.90
2022-10-23T12:53:27.999Z,0.70
2022-10-23T12:56:38.976Z,0.80
2022-10-23T12:59:43.883Z,1.40
2022-10-23T13:02:47.218Z,1.08
2022-10-23T13:05:52.464Z,0.90
2022-10-23T13:08:56.277Z,1.33
2022-10-23T13:12:03.977Z,0.80
2022-10-23T13:15:17.405Z,1.23
2022-10-23T13:18:20.422Z,0.70
2022-10-23T13:21:24.815Z,1.42
2022-10-23T13:24:30.309Z,0.60
2022-10-23T13:27:35.715Z,2.42
2022-10-23T13:30:42.636Z,1.70
2022-10-23T13:33:47.800Z,3.83
2022-10-23T13:36:57.727Z,0.47
2022-10-23T13:40:02.260Z,0.60
2022-10-23T13:43:19.160Z,1.92
2022-10-23T13:46:24.382Z,0.80
2022-10-23T13:49:27.511Z,2.05
2022-10-23T13:52:30.449Z,0.90
2022-10-23T13:55:34.231Z,0.88
2022-10-23T13:58:38.730Z,3.58
2022-10-23T14:01:41.955Z,1.10
2022-10-23T14:04:46.308Z,1.27
2022-10-23T14:07:49.890Z,1.30
2022-10-23T14:10:52.792Z,0.50
2022-10-23T14:13:57.687Z,0.52
2022-10-23T14:17:00.826Z,2.35
2022-10-23T14:20:05.884Z,0.88
2022-10-23T14:23:09.342Z,0.70
2022-10-23T14:26:14.688Z,1.02
2022-10-23T14:29:23.933Z,0.63
2022-10-23T14:32:27.497Z,0.88
2022-10-23T14:35:30.591Z,0.85
2022-10-23T14:38:33.478Z,3.80
2022-10-23T14:41:37.284Z,0.75
2022-10-23T14:44:43.287Z,2.53
2022-10-23T14:47:46.531Z,2.78
2022-10-23T14:50:50.790Z,1.63
2022-10-23T14:53:59.369Z,0.88
2022-10-23T14:57:02.715Z,2.22
2022-10-23T15:00:08.040Z,2.33
2022-10-23T15:03:10.971Z,1.23
2022-10-23T15:06:17.601Z,0.85
2022-10-23T15:09:21.467Z,2.13
2022-10-23T15:12:24.738Z,2.25
2022-10-23T15:15:29.066Z,3.70
2022-10-23T15:18:32.333Z,4.97
2022-10-23T15:21:35.243Z,7.97
2022-10-23T15:24:38.294Z,6.65
2022-10-23T15:27:41.253Z,8.38
2022-10-23T15:30:46.043Z,11.88
2022-10-23T15:33:48.987Z,10.00
2022-10-23T15:36:53.043Z,8.00
2022-10-23T15:40:01.213Z,9.60
2022-10-23T15:43:05.933Z,7.60
2022-10-23T15:46:10.201Z,4.90
2022-10-23T15:49:13.722Z,4.22
2022-10-23T15:52:16.738Z,3.80
2022-10-23T15:55:19.663Z,4.55
2022-10-23T15:58:22.549Z,5.95
2022-10-23T16:01:27.212Z,4.65
2022-10-23T16:04:30.727Z,3.78
2022-10-23T16:07:33.668Z,3.35
2022-10-23T16:10:40.786Z,3.20
2022-10-23T16:13:44.632Z,3.72
2022-10-23T16:16:48.884Z,3.60
2022-10-23T16:19:51.773Z,3.38
2022-10-23T16:22:55.014Z,4.72
2022-10-23T16:25:57.926Z,4.00
2022-10-23T16:29:02.914Z,4.07
2022-10-23T16:32:07.297Z,4.35
2022-10-23T16:35:12.994Z,4.40
2022-10-23T16:38:16.132Z,4.70
2022-10-23T16:41:19.151Z,4.82
2022-10-23T16:44:22.029Z,5.70
2022-10-23T16:47:27.899Z,4.43
2022-10-23T16:50:30.821Z,5.53
2022-10-23T16:53:34.226Z,7.95
2022-10-23T16:56:37.334Z,8.02
2022-10-23T16:59:40.217Z,9.65
2022-10-23T17:02:44.792Z,5.35
2022-10-23T17:05:47.908Z,5.70
2022-10-23T17:08:51.253Z,5.57
2022-10-23T17:11:54.747Z,5.20
2022-10-23T17:14:57.761Z,5.97
2022-10-23T17:18:02.039Z,6.30
2022-10-23T17:21:05.535Z,8.87
2022-10-23T17:24:09.000Z,5.83
2022-10-23T17:27:11.940Z,6.93
2022-10-23T17:30:15.015Z,7.47
2022-10-23T17:33:19.786Z,9.43
2022-10-23T17:36:23.327Z,9.93
2022-10-23T17:39:28.701Z,12.50
2022-10-23T17:42:31.596Z,13.20
2022-10-23T17:45:36.509Z,10.33
2022-10-23T17:48:41.866Z,8.83
2022-10-23T17:51:44.750Z,10.03
2022-10-23T17:54:47.628Z,10.07
2022-10-23T17:57:50.495Z,9.67
2022-10-23T18:00:53.574Z,9.13
2022-10-23T18:04:01.339Z,7.33
2022-10-23T18:07:04.237Z,6.67
2022-10-23T18:10:07.850Z,7.53
2022-10-23T18:13:10.801Z,9.35
2022-10-23T18:16:14.605Z,5.73
2022-10-23T18:19:19.285Z,6.30
2022-10-23T18:22:22.162Z,6.67
2022-10-23T18:25:25.127Z,5.87
2022-10-23T18:28:29.408Z,7.20
2022-10-23T18:31:32.439Z,7.00
2022-10-23T18:34:36.848Z,7.00
2022-10-23T18:37:41.526Z,7.27
2022-10-23T18:40:45.314Z,8.97
2022-10-23T18:43:48.272Z,7.47
2022-10-23T18:46:52.163Z,9.47
2022-10-23T18:49:56.430Z,10.33
2022-10-23T18:52:59.337Z,8.93
2022-10-23T18:56:02.241Z,9.23
2022-10-23T18:59:07.505Z,9.13
2022-10-23T19:02:11.715Z,9.43
2022-10-23T19:05:16.088Z,10.73
2022-10-23T19:08:19.165Z,9.43
2022-10-23T19:11:23.925Z,8.37
2022-10-23T19:14:28.664Z,9.93
2022-10-23T19:17:33.690Z,10.90
2022-10-23T19:20:38.931Z,8.40
2022-10-23T19:23:43.736Z,9.33
2022-10-23T19:26:46.720Z,10.63
2022-10-23T19:29:51.232Z,8.47
2022-10-23T19:32:54.725Z,10.23
2022-10-23T19:36:02.291Z,10.10
2022-10-23T19:39:07.800Z,10.67
2022-10-23T19:42:10.676Z,10.47
2022-10-23T19:45:15.957Z,20.70
2022-10-23T19:48:18.867Z,22.77
2022-10-23T19:51:23.134Z,15.93
2022-10-23T19:54:26.085Z,13.87
2022-10-23T19:57:30.381Z,18.80
2022-10-23T20:00:33.295Z,29.63
2022-10-23T20:03:36.192Z,13.87
2022-10-23T20:06:40.498Z,14.60
2022-10-23T20:09:43.541Z,15.17
2022-10-23T20:12:56.369Z,10.80
2022-10-23T20:16:00.316Z,12.10
2022-10-23T20:19:04.122Z,10.40
2022-10-23T20:22:08.453Z,11.47
2022-10-23T20:25:11.323Z,10.33
2022-10-23T20:28:15.245Z,12.87
2022-10-23T20:31:20.556Z,11.93
2022-10-23T20:34:23.448Z,10.50
2022-10-23T20:37:27.899Z,11.57
2022-10-23T20:40:31.362Z,10.60
2022-10-23T20:43:35.182Z,10.13
2022-10-23T20:46:38.141Z,8.17
2022-10-23T20:49:41.093Z,6.07
2022-10-23T20:52:45.565Z,5.90
2022-10-23T20:55:48.453Z,5.40
2022-10-23T20:58:51.841Z,4.97
2022-10-23T21:01:56.380Z,5.80
2022-10-23T21:04:59.545Z,4.93
2022-10-23T21:08:03.813Z,4.30
2022-10-23T21:11:07.958Z,5.17
2022-10-23T21:14:10.915Z,3.90
2022-10-23T21:17:17.050Z,3.83
2022-10-23T21:20:19.974Z,4.83
2022-10-23T21:23:24.286Z,4.47
2022-10-23T21:26:29.505Z,5.53
2022-10-23T21:29:32.613Z,4.63
2022-10-23T21:32:35.481Z,4.83
2022-10-23T21:35:43.249Z,4.73
2022-10-23T21:38:58.466Z,4.50
2022-10-23T21:42:01.681Z,4.90
2022-10-23T21:45:05.259Z,3.77
2022-10-23T21:48:08.134Z,3.63
2022-10-23T21:51:18.093Z,3.47
2022-10-23T21:54:22.327Z,5.87
2022-10-23T21:57:25.266Z,6.33
2022-10-23T22:00:28.310Z,6.00
2022-10-23T22:03:31.198Z,7.10
2022-10-23T22:06:34.220Z,7.30
2022-10-23T22:09:38.451Z,5.80
2022-10-23T22:12:41.644Z,4.37
2022-10-23T22:18:52.316Z,4.33
2022-10-23T22:21:55.301Z,7.73
2022-10-23T22:24:59.872Z,5.97
2022-10-23T22:28:03.093Z,5.70
2022-10-23T22:31:06.245Z,3.90
2022-10-23T22:34:25.090Z,5.50
2022-10-23T22:37:35.276Z,4.57
2022-10-23T22:40:43.046Z,6.07
2022-10-23T22:43:48.609Z,3.33
2022-10-23T22:46:52.013Z,3.30
2022-10-23T22:49:54.859Z,5.67
2022-10-23T22:52:57.740Z,3.90
2022-10-23T22:56:02.181Z,5.93
2022-10-23T22:59:05.745Z,3.97
2022-10-23T23:02:09.134Z,5.70
2022-10-23T23:05:13.240Z,8.60
2022-10-23T23:08:16.348Z,5.17
2022-10-23T23:11:22.723Z,6.03
2022-10-23T23:14:25.800Z,7.53
2022-10-23T23:17:28.974Z,6.30
2022-10-23T23:20:31.913Z,2.87
2022-10-23T23:23:35.021Z,4.20
2022-10-23T23:26:39.268Z,7.83
2022-10-23T23:29:42.202Z,6.00
2022-10-23T23:32:47.924Z,4.70
2022-10-23T23:35:50.798Z,4.47
2022-10-23T23:38:55.173Z,2.37
2022-10-23T23:41:59.593Z,3.00
2022-10-23T23:45:13.554Z,3.23
2022-10-23T23:48:17.345Z,7.30
2022-10-23T23:51:23.465Z,4.27
2022-10-23T23:54:26.417Z,7.50
2022-10-23T23:57:31.055Z,5.47
